createdAt,value
2017-12-21T00:00:33.713Z,65.00
2017-12-21T00:01:33.704Z,58.50
2017-12-21T00:02:33.701Z,48.30
2017-12-21T00:03:33.694Z,48.20
2017-12-21T00:04:33.686Z,48.70
2017-12-21T00:05:33.675Z,50.60
2017-12-21T00:06:33.666Z,49.00
2017-12-21T00:07:33.660Z,56.60
2017-12-21T00:08:33.648Z,45.00
2017-12-21T00:09:33.640Z,56.20
2017-12-21T00:10:33.679Z,52.90
2017-12-21T00:11:33.619Z,47.30
2017-12-21T00:12:33.610Z,58.10
2017-12-21T00:13:33.603Z,64.00
2017-12-21T00:14:33.594Z,59.90
2017-12-21T00:15:33.586Z,60.30
2017-12-21T00:16:33.577Z,62.10
2017-12-21T00:17:33.568Z,57.40
2017-12-21T00:18:33.565Z,53.40
2017-12-21T00:19:33.560Z,55.10
2017-12-21T00:20:33.545Z,53.00
2017-12-21T00:21:33.538Z,62.20
2017-12-21T00:22:33.531Z,56.40
2017-12-21T00:23:33.521Z,55.60
2017-12-21T00:24:33.512Z,56.70
2017-12-21T00:25:33.505Z,59.70
2017-12-21T00:26:33.491Z,52.10
2017-12-21T00:27:33.485Z,53.00
2017-12-21T00:28:33.473Z,59.40
2017-12-21T00:29:33.470Z,58.60
2017-12-21T00:30:33.457Z,59.80
2017-12-21T00:31:33.450Z,55.50
2017-12-21T00:32:33.442Z,63.10
2017-12-21T00:33:33.432Z,50.30
2017-12-21T00:34:33.429Z,49.70
2017-12-21T00:35:33.420Z,56.50
2017-12-21T00:36:33.410Z,57.40
2017-12-21T00:37:33.402Z,68.60
2017-12-21T00:38:33.394Z,57.10
2017-12-21T00:39:33.385Z,70.30
2017-12-21T00:40:33.379Z,48.90
2017-12-21T00:41:33.371Z,54.00
2017-12-21T00:42:33.355Z,54.00
2017-12-21T00:43:33.347Z,63.60
2017-12-21T00:44:33.337Z,55.40
2017-12-21T00:45:33.331Z,71.90
2017-12-21T00:46:33.325Z,60.00
2017-12-21T00:47:33.317Z,73.80
2017-12-21T00:48:33.308Z,67.20
2017-12-21T00:49:33.301Z,54.10
2017-12-21T00:50:33.289Z,66.90
2017-12-21T00:51:33.287Z,62.10
2017-12-21T00:52:33.272Z,60.70
2017-12-21T00:53:33.262Z,60.50
2017-12-21T00:54:33.252Z,64.90
2017-12-21T00:55:33.244Z,63.80
2017-12-21T00:56:33.236Z,67.60
2017-12-21T00:57:33.227Z,60.00
2017-12-21T00:58:33.225Z,55.50
2017-12-21T00:59:33.216Z,56.70
2017-12-21T01:00:33.207Z,63.30
2017-12-21T01:01:33.198Z,61.60
2017-12-21T01:02:33.190Z,54.60
2017-12-21T01:03:33.181Z,64.20
2017-12-21T01:04:33.171Z,78.70
2017-12-21T01:05:33.163Z,69.40
2017-12-21T01:06:33.151Z,57.60
2017-12-21T01:07:33.142Z,71.60
2017-12-21T01:08:33.134Z,72.50
2017-12-21T01:09:33.126Z,70.40
2017-12-21T01:10:33.118Z,87.00
2017-12-21T01:11:33.109Z,80.60
2017-12-21T01:12:33.099Z,74.80
2017-12-21T01:13:33.091Z,76.00
2017-12-21T01:14:33.087Z,83.20
2017-12-21T01:15:33.080Z,61.90
2017-12-21T01:16:33.070Z,61.60
2017-12-21T01:17:33.062Z,71.40
2017-12-21T01:18:33.053Z,82.50
2017-12-21T01:19:33.047Z,71.50
2017-12-21T01:20:33.038Z,65.80
2017-12-21T01:21:33.029Z,101.10
2017-12-21T01:22:33.015Z,89.40
2017-12-21T01:23:33.009Z,84.50
2017-12-21T01:24:32.998Z,79.40
2017-12-21T01:25:32.991Z,74.10
2017-12-21T01:26:32.981Z,91.50
2017-12-21T01:27:32.973Z,91.10
2017-12-21T01:28:32.964Z,87.90
2017-12-21T01:29:32.955Z,97.20
2017-12-21T01:30:32.952Z,88.60
2017-12-21T01:31:32.943Z,91.00
2017-12-21T01:32:32.934Z,94.30
2017-12-21T01:33:32.925Z,97.40
2017-12-21T01:34:32.916Z,88.00
2017-12-21T01:35:32.908Z,78.20
2017-12-21T01:36:32.900Z,97.00
2017-12-21T01:37:32.891Z,80.70
2017-12-21T01:38:32.880Z,95.20
2017-12-21T01:39:32.870Z,105.50
2017-12-21T01:40:32.862Z,105.60
2017-12-21T01:41:32.854Z,70.30
2017-12-21T01:42:32.846Z,110.40
2017-12-21T01:43:32.837Z,96.90
2017-12-21T01:44:32.827Z,90.70
2017-12-21T01:45:32.820Z,76.70
2017-12-21T01:46:32.814Z,73.50
2017-12-21T01:47:32.806Z,75.30
2017-12-21T01:48:32.798Z,68.40
2017-12-21T01:49:32.790Z,74.80
2017-12-21T01:50:32.777Z,94.30
2017-12-21T01:51:32.769Z,82.90
2017-12-21T01:52:32.759Z,103.80
2017-12-21T01:53:32.751Z,80.00
2017-12-21T01:54:32.747Z,100.30
2017-12-21T01:55:32.738Z,97.90
2017-12-21T01:56:32.730Z,100.60
2017-12-21T01:57:32.720Z,96.30
2017-12-21T01:58:32.712Z,68.90
2017-12-21T01:59:32.705Z,70.00
2017-12-21T02:00:32.694Z,86.40
2017-12-21T02:01:32.688Z,84.70
2017-12-21T02:02:32.674Z,90.10
2017-12-21T02:03:32.666Z,88.10
2017-12-21T02:04:32.657Z,67.40
2017-12-21T02:05:32.650Z,85.50
2017-12-21T02:06:32.640Z,89.50
2017-12-21T02:07:32.632Z,73.50
2017-12-21T02:08:32.623Z,90.30
2017-12-21T02:09:32.614Z,88.40
2017-12-21T02:10:32.610Z,81.50
2017-12-21T02:11:32.602Z,73.50
2017-12-21T02:12:32.593Z,77.80
2017-12-21T02:13:32.585Z,81.30
2017-12-21T02:14:32.577Z,72.70
2017-12-21T02:15:32.569Z,87.70
2017-12-21T02:16:32.558Z,83.60
2017-12-21T02:17:32.550Z,83.10
2017-12-21T02:18:32.537Z,79.20
2017-12-21T02:19:32.530Z,75.70
2017-12-21T02:20:32.521Z,101.50
2017-12-21T02:21:32.513Z,96.90
2017-12-21T02:22:32.503Z,91.20
2017-12-21T02:23:32.494Z,93.40
2017-12-21T02:24:32.486Z,98.30
2017-12-21T02:25:32.478Z,88.80
2017-12-21T02:26:32.474Z,93.70
2017-12-21T02:27:32.468Z,90.70
2017-12-21T02:28:32.457Z,95.60
2017-12-21T02:29:32.447Z,98.50
2017-12-21T02:30:32.440Z,105.50
2017-12-21T02:31:32.432Z,112.90
2017-12-21T02:32:32.421Z,117.50
2017-12-21T02:33:32.414Z,115.10
2017-12-21T02:34:32.402Z,113.30
2017-12-21T02:35:32.393Z,114.70
2017-12-21T02:36:32.383Z,96.30
2017-12-21T02:37:32.375Z,113.60
2017-12-21T02:38:32.366Z,117.00
2017-12-21T02:39:32.358Z,108.00
2017-12-21T02:40:32.348Z,99.20
2017-12-21T02:41:32.340Z,104.30
2017-12-21T02:42:32.335Z,116.30
2017-12-21T02:43:32.329Z,86.20
2017-12-21T02:44:32.317Z,114.10
2017-12-21T02:45:32.311Z,101.00
2017-12-21T02:46:32.302Z,125.00
2017-12-21T02:47:32.294Z,105.80
2017-12-21T02:48:32.284Z,96.20
2017-12-21T02:49:32.276Z,109.60
2017-12-21T02:50:32.263Z,115.30
2017-12-21T02:51:32.254Z,123.30
2017-12-21T02:52:32.245Z,129.00
2017-12-21T02:53:32.237Z,135.50
2017-12-21T02:54:32.233Z,109.70
2017-12-21T02:55:32.223Z,102.70
2017-12-21T02:56:32.215Z,109.30
2017-12-21T02:57:32.207Z,128.10
2017-12-21T02:58:32.194Z,116.40
2017-12-21T02:59:32.186Z,102.40
2017-12-21T03:00:32.176Z,116.00
2017-12-21T03:01:32.168Z,112.20
2017-12-21T03:02:32.160Z,106.30
2017-12-21T03:03:32.151Z,116.00
2017-12-21T03:04:32.142Z,103.60
2017-12-21T03:05:32.133Z,97.80
2017-12-21T03:06:32.128Z,109.60
2017-12-21T03:07:32.121Z,105.80
2017-12-21T03:08:32.114Z,117.90
2017-12-21T03:09:32.103Z,108.60
2017-12-21T03:10:32.094Z,103.60
2017-12-21T03:11:32.087Z,103.00
2017-12-21T03:12:32.075Z,105.20
2017-12-21T03:13:32.068Z,100.50
2017-12-21T03:14:32.056Z,120.00
2017-12-21T03:15:32.047Z,103.70
2017-12-21T03:16:32.037Z,112.30
2017-12-21T03:17:32.029Z,92.60
2017-12-21T03:18:32.022Z,97.20
2017-12-21T03:19:32.011Z,111.10
2017-12-21T03:20:32.009Z,92.50
2017-12-21T03:21:31.995Z,88.40
2017-12-21T03:22:31.990Z,78.70
2017-12-21T03:23:31.984Z,85.20
2017-12-21T03:24:31.972Z,91.00
2017-12-21T03:25:31.966Z,96.90
2017-12-21T03:26:31.955Z,92.20
2017-12-21T03:27:31.948Z,83.20
2017-12-21T03:28:31.939Z,81.20
2017-12-21T03:29:31.930Z,88.60
2017-12-21T03:30:31.918Z,81.00
2017-12-21T03:31:31.908Z,85.80
2017-12-21T03:32:31.900Z,86.50
2017-12-21T03:33:31.891Z,91.80
2017-12-21T03:34:31.882Z,90.20
2017-12-21T03:35:31.926Z,87.40
2017-12-21T03:36:31.864Z,86.10
2017-12-21T03:37:31.857Z,94.10
2017-12-21T03:38:31.855Z,98.10
2017-12-21T03:39:31.844Z,119.60
2017-12-21T03:40:31.835Z,87.80
2017-12-21T03:41:31.827Z,101.40
2017-12-21T03:42:31.818Z,117.30
2017-12-21T03:43:31.810Z,109.50
2017-12-21T03:44:31.799Z,125.10
2017-12-21T03:45:31.792Z,110.10
2017-12-21T03:46:31.780Z,130.20
2017-12-21T03:47:31.771Z,141.10
2017-12-21T03:48:31.765Z,175.60
2017-12-21T03:49:31.754Z,149.00
2017-12-21T03:50:31.745Z,150.80
2017-12-21T03:51:31.737Z,126.10
2017-12-21T03:52:31.727Z,124.00
2017-12-21T03:53:31.719Z,146.90
2017-12-21T03:54:31.715Z,174.70
2017-12-21T03:55:31.706Z,126.40
2017-12-21T03:56:31.696Z,128.50
2017-12-21T03:57:31.688Z,138.00
2017-12-21T03:58:31.680Z,144.10
2017-12-21T03:59:31.667Z,115.50
2017-12-21T04:00:31.658Z,141.10
2017-12-21T04:01:31.650Z,131.60
2017-12-21T04:02:31.648Z,133.40
2017-12-21T04:03:31.638Z,152.10
2017-12-21T04:04:31.628Z,132.00
2017-12-21T04:05:31.620Z,159.80
2017-12-21T04:06:31.611Z,150.90
2017-12-21T04:07:31.603Z,154.20
2017-12-21T04:08:31.593Z,135.60
2017-12-21T04:09:31.585Z,116.00
2017-12-21T04:10:31.573Z,142.10
2017-12-21T04:11:31.564Z,141.30
2017-12-21T04:12:31.555Z,154.00
2017-12-21T04:13:31.548Z,148.50
2017-12-21T04:14:31.538Z,142.20
2017-12-21T04:15:31.529Z,124.40
2017-12-21T04:16:31.521Z,109.10
2017-12-21T04:17:31.513Z,128.10
2017-12-21T04:18:31.509Z,125.30
2017-12-21T04:19:31.501Z,103.30
2017-12-21T04:20:31.491Z,111.90
2017-12-21T04:21:31.482Z,108.00
2017-12-21T04:22:31.474Z,127.70
2017-12-21T04:23:31.465Z,96.10
2017-12-21T04:24:31.455Z,95.10
2017-12-21T04:25:31.448Z,104.00
2017-12-21T04:26:31.435Z,104.90
2017-12-21T04:27:31.426Z,90.60
2017-12-21T04:28:31.418Z,90.10
2017-12-21T04:29:31.408Z,95.30
2017-12-21T04:30:31.401Z,97.70
2017-12-21T04:31:31.392Z,84.30
2017-12-21T04:32:31.382Z,94.70
2017-12-21T04:33:31.375Z,99.70
2017-12-21T04:34:31.371Z,81.90
2017-12-21T04:35:31.362Z,95.20
2017-12-21T04:36:31.359Z,87.90
2017-12-21T04:37:31.345Z,104.80
2017-12-21T04:38:31.336Z,77.30
2017-12-21T04:39:31.328Z,81.30
2017-12-21T04:40:31.318Z,90.10
2017-12-21T04:41:31.309Z,83.00
2017-12-21T04:42:31.297Z,105.10
2017-12-21T04:43:31.292Z,84.90
2017-12-21T04:44:31.279Z,88.90
2017-12-21T04:45:31.270Z,92.00
2017-12-21T04:46:31.262Z,87.50
2017-12-21T04:47:31.254Z,88.50
2017-12-21T04:48:31.245Z,87.30
2017-12-21T04:49:31.237Z,94.40
2017-12-21T04:50:31.233Z,97.60
2017-12-21T04:51:31.226Z,92.40
2017-12-21T04:52:31.216Z,93.90
2017-12-21T04:53:31.207Z,93.80
2017-12-21T04:54:31.198Z,91.80
2017-12-21T04:55:31.193Z,85.90
2017-12-21T04:56:31.238Z,85.70
2017-12-21T04:57:31.172Z,94.10
2017-12-21T04:58:31.160Z,99.20
2017-12-21T04:59:31.152Z,103.60
2017-12-21T05:00:31.148Z,104.60
2017-12-21T05:01:31.134Z,96.90
2017-12-21T05:02:31.130Z,85.20
2017-12-21T05:03:31.121Z,88.50
2017-12-21T05:04:31.112Z,80.50
2017-12-21T05:05:31.103Z,89.90
2017-12-21T05:06:31.091Z,89.50
2017-12-21T05:07:31.082Z,89.30
2017-12-21T05:08:31.072Z,91.60
2017-12-21T05:09:31.066Z,106.60
2017-12-21T05:10:31.057Z,107.70
2017-12-21T05:11:31.048Z,95.40
2017-12-21T05:12:31.102Z,98.30
2017-12-21T05:13:31.031Z,95.90
2017-12-21T05:14:31.026Z,103.10
2017-12-21T05:15:31.017Z,96.30
2017-12-21T05:16:31.008Z,109.40
2017-12-21T05:17:30.999Z,127.40
2017-12-21T05:18:30.992Z,92.80
2017-12-21T05:19:30.983Z,116.20
2017-12-21T05:20:30.974Z,110.80
2017-12-21T05:21:30.966Z,114.10
2017-12-21T05:22:30.954Z,98.20
2017-12-21T05:23:30.944Z,138.20
2017-12-21T05:24:30.934Z,128.30
2017-12-21T05:25:30.927Z,135.80
2017-12-21T05:26:30.919Z,144.00
2017-12-21T05:27:30.909Z,122.40
2017-12-21T05:28:30.901Z,116.90
2017-12-21T05:29:30.893Z,106.80
2017-12-21T05:30:30.887Z,125.90
2017-12-21T05:31:30.880Z,127.80
2017-12-21T05:32:30.870Z,106.40
2017-12-21T05:33:30.861Z,119.80
2017-12-21T05:34:30.857Z,141.30
2017-12-21T05:35:30.844Z,142.60
2017-12-21T05:36:30.834Z,119.80
2017-12-21T05:37:30.825Z,114.80
2017-12-21T05:38:30.817Z,115.90
2017-12-21T05:39:30.806Z,125.90
2017-12-21T05:40:30.795Z,136.30
2017-12-21T05:41:30.787Z,135.30
2017-12-21T05:42:30.778Z,106.00
2017-12-21T05:43:30.770Z,135.60
2017-12-21T05:44:30.760Z,105.90
2017-12-21T05:45:30.755Z,127.80
2017-12-21T05:46:30.749Z,118.50
2017-12-21T05:47:30.742Z,119.30
2017-12-21T05:48:30.732Z,123.50
2017-12-21T05:49:30.722Z,111.80
2017-12-21T05:50:30.713Z,105.90
2017-12-21T05:51:30.704Z,116.90
2017-12-21T05:52:30.696Z,126.60
2017-12-21T05:53:30.687Z,143.20
2017-12-21T05:54:30.672Z,130.70
2017-12-21T05:55:30.665Z,118.00
2017-12-21T05:56:30.656Z,132.60
2017-12-21T05:57:30.647Z,123.00
2017-12-21T05:58:30.638Z,157.20
2017-12-21T05:59:30.636Z,133.20
2017-12-21T06:00:30.621Z,119.60
2017-12-21T06:01:30.611Z,147.60
2017-12-21T06:02:30.608Z,145.40
2017-12-21T06:03:30.599Z,144.90
2017-12-21T06:04:30.635Z,149.70
2017-12-21T06:05:30.581Z,143.30
2017-12-21T06:06:30.569Z,140.10
2017-12-21T06:07:30.559Z,143.10
2017-12-21T06:08:30.550Z,148.60
2017-12-21T06:09:30.542Z,126.20
2017-12-21T06:10:30.537Z,136.00
2017-12-21T06:11:30.530Z,141.20
2017-12-21T06:12:30.518Z,151.30
2017-12-21T06:13:30.510Z,140.20
2017-12-21T06:14:30.504Z,147.50
2017-12-21T06:15:30.500Z,136.00
2017-12-21T06:16:30.485Z,122.70
2017-12-21T06:17:30.476Z,139.80
2017-12-21T06:18:30.463Z,148.80
2017-12-21T06:19:30.455Z,141.50
2017-12-21T06:20:30.445Z,129.80
2017-12-21T06:21:30.438Z,119.80
2017-12-21T06:22:30.429Z,148.30
2017-12-21T06:23:30.420Z,127.50
2017-12-21T06:24:30.411Z,138.30
2017-12-21T06:25:30.401Z,151.40
2017-12-21T06:26:30.398Z,139.70
2017-12-21T06:27:30.388Z,121.20
2017-12-21T06:28:30.380Z,144.10
2017-12-21T06:29:30.372Z,150.20
2017-12-21T06:30:30.362Z,134.50
2017-12-21T06:31:30.355Z,154.90
2017-12-21T06:32:30.346Z,154.40
2017-12-21T06:33:30.337Z,142.60
2017-12-21T06:34:30.325Z,169.00
2017-12-21T06:35:30.314Z,119.00
2017-12-21T06:36:30.306Z,138.90
2017-12-21T06:37:30.300Z,133.20
2017-12-21T06:38:30.288Z,143.40
2017-12-21T06:39:30.281Z,109.80
2017-12-21T06:40:30.272Z,139.90
2017-12-21T06:41:30.265Z,134.30
2017-12-21T06:42:30.258Z,125.50
2017-12-21T06:43:30.250Z,139.90
2017-12-21T06:44:30.243Z,129.60
2017-12-21T06:45:30.232Z,141.50
2017-12-21T06:46:30.222Z,118.70
2017-12-21T06:47:30.214Z,117.00
2017-12-21T06:48:30.205Z,143.00
2017-12-21T06:49:30.197Z,132.70
2017-12-21T06:50:30.184Z,122.90
2017-12-21T06:51:30.179Z,132.40
2017-12-21T06:52:30.166Z,128.70
2017-12-21T06:53:30.159Z,115.10
2017-12-21T06:54:30.149Z,121.70
2017-12-21T06:55:30.141Z,110.00
2017-12-21T06:56:30.132Z,131.70
2017-12-21T06:57:30.122Z,151.80
2017-12-21T06:58:30.118Z,127.60
2017-12-21T06:59:30.110Z,121.70
2017-12-21T07:00:30.100Z,113.80
2017-12-21T07:01:30.092Z,133.00
2017-12-21T07:02:30.084Z,127.00
2017-12-21T07:03:30.076Z,118.00
2017-12-21T07:04:30.066Z,119.90
2017-12-21T07:05:30.058Z,124.30
2017-12-21T07:06:30.046Z,141.90
2017-12-21T07:07:30.036Z,127.40
2017-12-21T07:08:30.028Z,136.30
2017-12-21T07:09:30.019Z,153.20
2017-12-21T07:10:30.011Z,125.90
2017-12-21T07:11:30.005Z,126.30
2017-12-21T07:12:29.992Z,155.40
2017-12-21T07:13:29.985Z,150.90
2017-12-21T07:14:29.981Z,128.00
2017-12-21T07:15:29.972Z,149.70
2017-12-21T07:16:29.963Z,148.20
2017-12-21T07:17:29.955Z,139.30
2017-12-21T07:18:29.952Z,148.10
2017-12-21T07:19:29.939Z,178.20
2017-12-21T07:20:29.928Z,153.60
2017-12-21T07:21:29.921Z,163.00
2017-12-21T07:22:29.908Z,163.80
2017-12-21T07:23:29.899Z,140.40
2017-12-21T07:24:29.889Z,152.40
2017-12-21T07:25:29.881Z,160.00
2017-12-21T07:26:29.876Z,148.80
2017-12-21T07:27:29.863Z,143.00
2017-12-21T07:28:29.854Z,174.70
2017-12-21T07:29:29.846Z,164.80
2017-12-21T07:30:29.842Z,153.10
2017-12-21T07:31:29.841Z,148.00
2017-12-21T07:32:29.824Z,140.00
2017-12-21T07:33:29.816Z,166.20
2017-12-21T07:34:29.807Z,138.50
2017-12-21T07:35:29.799Z,144.20
2017-12-21T07:36:29.789Z,169.00
2017-12-21T07:37:29.782Z,149.10
2017-12-21T07:38:29.769Z,156.90
2017-12-21T07:39:29.761Z,153.70
2017-12-21T07:40:29.750Z,146.80
2017-12-21T07:41:29.743Z,168.00
2017-12-21T07:42:29.734Z,146.00
2017-12-21T07:43:29.724Z,146.90
2017-12-21T07:44:29.717Z,125.80
2017-12-21T07:45:29.706Z,165.10
2017-12-21T07:46:29.704Z,125.70
2017-12-21T07:47:29.694Z,137.90
2017-12-21T07:48:29.686Z,142.40
2017-12-21T07:49:29.678Z,111.40
2017-12-21T07:50:29.667Z,119.60
2017-12-21T07:51:29.661Z,109.90
2017-12-21T07:52:29.651Z,114.30
2017-12-21T07:53:29.643Z,105.60
2017-12-21T07:54:29.630Z,138.80
2017-12-21T07:55:29.622Z,101.20
2017-12-21T07:56:29.616Z,108.70
2017-12-21T07:57:29.605Z,114.20
2017-12-21T07:58:29.595Z,115.00
2017-12-21T07:59:29.588Z,132.90
2017-12-21T08:00:29.577Z,122.00
2017-12-21T08:01:29.569Z,98.70
2017-12-21T08:02:29.566Z,109.90
2017-12-21T08:03:29.557Z,132.30
2017-12-21T08:04:29.548Z,101.20
2017-12-21T08:05:29.538Z,125.50
2017-12-21T08:06:29.531Z,124.00
2017-12-21T08:07:29.523Z,123.60
2017-12-21T08:08:29.513Z,123.00
2017-12-21T08:09:29.505Z,133.60
2017-12-21T08:10:29.492Z,120.70
2017-12-21T08:11:29.484Z,122.00
2017-12-21T08:12:29.474Z,116.80
2017-12-21T08:13:29.466Z,105.20
2017-12-21T08:14:29.463Z,105.50
2017-12-21T08:15:29.453Z,130.60
2017-12-21T08:16:29.444Z,85.70
2017-12-21T08:17:29.437Z,92.40
2017-12-21T08:18:29.423Z,112.50
2017-12-21T08:19:29.415Z,105.90
2017-12-21T08:20:29.405Z,114.20
2017-12-21T08:21:29.398Z,103.80
2017-12-21T08:22:29.392Z,94.80
2017-12-21T08:23:29.382Z,105.90
2017-12-21T08:24:29.372Z,91.80
2017-12-21T08:25:29.363Z,101.20
2017-12-21T08:26:29.360Z,84.70
2017-12-21T08:27:29.351Z,105.00
2017-12-21T08:28:29.342Z,83.60
2017-12-21T08:29:29.334Z,91.10
2017-12-21T08:30:29.325Z,80.70
2017-12-21T08:31:29.317Z,81.40
2017-12-21T08:32:29.308Z,89.70
2017-12-21T08:33:29.299Z,90.50
2017-12-21T08:34:29.289Z,95.20
2017-12-21T08:35:29.279Z,90.00
2017-12-21T08:36:29.270Z,88.40
2017-12-21T08:37:29.261Z,95.30
2017-12-21T08:38:29.253Z,91.60
2017-12-21T08:39:29.246Z,86.70
2017-12-21T08:40:29.236Z,87.10
2017-12-21T08:41:29.227Z,87.80
2017-12-21T08:42:29.224Z,78.40
2017-12-21T08:43:29.215Z,76.70
2017-12-21T08:44:29.206Z,91.60
2017-12-21T08:45:29.198Z,73.10
2017-12-21T08:46:29.191Z,85.60
2017-12-21T08:47:29.182Z,72.00
2017-12-21T08:48:29.171Z,73.70
2017-12-21T08:49:29.164Z,80.40
2017-12-21T08:50:29.152Z,74.20
2017-12-21T08:51:29.143Z,63.00
2017-12-21T08:52:29.135Z,68.20
2017-12-21T08:53:29.126Z,77.80
2017-12-21T08:54:29.137Z,75.30
2017-12-21T08:55:29.109Z,64.20
2017-12-21T08:56:29.100Z,67.30
2017-12-21T08:57:29.092Z,65.80
2017-12-21T08:58:29.089Z,57.00
2017-12-21T08:59:29.080Z,77.20
2017-12-21T09:00:29.071Z,67.30
2017-12-21T09:01:29.063Z,62.90
2017-12-21T09:02:29.055Z,62.80
2017-12-21T09:03:29.048Z,62.30
2017-12-21T09:04:29.037Z,58.70
2017-12-21T09:05:29.031Z,57.20
2017-12-21T09:06:29.017Z,62.10
2017-12-21T09:07:29.010Z,52.90
2017-12-21T09:08:29.001Z,54.60
2017-12-21T09:09:28.992Z,64.00
2017-12-21T09:10:28.988Z,64.60
2017-12-21T09:11:28.977Z,48.70
2017-12-21T09:12:28.969Z,54.50
2017-12-21T09:13:28.961Z,50.80
2017-12-21T09:14:28.956Z,54.10
2017-12-21T09:15:28.948Z,59.70
2017-12-21T09:16:28.941Z,52.10
2017-12-21T09:17:28.932Z,54.20
2017-12-21T09:18:28.921Z,53.70
2017-12-21T09:19:28.913Z,47.30
2017-12-21T09:20:28.905Z,58.50
2017-12-21T09:21:28.897Z,45.70
2017-12-21T09:22:28.894Z,52.30
2017-12-21T09:23:28.885Z,57.20
2017-12-21T09:24:28.877Z,54.30
2017-12-21T09:25:28.870Z,52.60
2017-12-21T09:26:28.862Z,54.10
2017-12-21T09:27:28.854Z,43.20
2017-12-21T09:28:28.844Z,53.50
2017-12-21T09:29:28.838Z,49.10
2017-12-21T09:30:28.825Z,42.10
2017-12-21T09:31:28.817Z,43.90
2017-12-21T09:32:28.809Z,42.80
2017-12-21T09:33:28.801Z,43.20
2017-12-21T09:34:28.793Z,35.50
2017-12-21T09:35:28.786Z,38.80
2017-12-21T09:36:28.778Z,42.10
2017-12-21T09:37:28.770Z,41.50
2017-12-21T09:38:28.766Z,41.30
2017-12-21T09:39:28.759Z,42.10
2017-12-21T09:40:28.749Z,40.60
2017-12-21T09:41:28.741Z,50.50
2017-12-21T09:42:28.734Z,43.00
2017-12-21T09:43:28.727Z,45.70
2017-12-21T09:44:28.718Z,52.40
2017-12-21T09:45:28.712Z,43.90
2017-12-21T09:46:28.701Z,50.70
2017-12-21T09:47:28.691Z,51.90
2017-12-21T09:48:28.682Z,51.20
2017-12-21T09:49:28.675Z,45.80
2017-12-21T09:50:28.667Z,46.80
2017-12-21T09:51:28.659Z,48.90
2017-12-21T09:52:28.650Z,49.90
2017-12-21T09:53:28.642Z,50.10
2017-12-21T09:54:28.640Z,40.50
2017-12-21T09:55:28.632Z,47.20
2017-12-21T09:56:28.622Z,42.50
2017-12-21T09:57:28.616Z,39.10
2017-12-21T09:58:28.608Z,43.10
2017-12-21T09:59:28.602Z,36.30
2017-12-21T10:00:28.590Z,39.90
2017-12-21T10:01:28.582Z,35.50
2017-12-21T10:02:28.572Z,44.30
2017-12-21T10:03:28.565Z,41.70
2017-12-21T10:04:28.555Z,41.80
2017-12-21T10:05:28.548Z,42.10
2017-12-21T10:06:28.540Z,38.30
2017-12-21T10:07:28.532Z,39.20
2017-12-21T10:08:28.523Z,39.20
2017-12-21T10:09:28.516Z,49.70
2017-12-21T10:10:28.512Z,39.40
2017-12-21T10:11:28.505Z,46.30
2017-12-21T10:12:28.496Z,40.10
2017-12-21T10:13:28.489Z,43.30
2017-12-21T10:14:28.481Z,43.50
2017-12-21T10:15:28.472Z,51.00
2017-12-21T10:16:28.464Z,39.90
2017-12-21T10:17:28.457Z,47.00
2017-12-21T10:18:28.447Z,53.20
2017-12-21T10:19:28.436Z,59.60
2017-12-21T10:20:28.429Z,61.30
2017-12-21T10:21:28.421Z,60.60
2017-12-21T10:22:28.417Z,69.30
2017-12-21T10:23:28.411Z,65.40
2017-12-21T10:24:28.401Z,65.80
2017-12-21T10:25:28.395Z,63.30
2017-12-21T10:26:28.383Z,73.10
2017-12-21T10:27:28.374Z,59.80
2017-12-21T10:28:28.394Z,64.40
2017-12-21T10:29:28.358Z,70.90
2017-12-21T10:30:28.351Z,59.00
2017-12-21T10:31:28.343Z,74.40
2017-12-21T10:32:28.335Z,73.50
2017-12-21T10:33:28.327Z,58.20
2017-12-21T10:34:28.324Z,73.20
2017-12-21T10:35:28.315Z,75.40
2017-12-21T10:36:28.307Z,61.10
2017-12-21T10:37:28.300Z,71.20
2017-12-21T10:38:28.293Z,71.20
2017-12-21T10:39:28.285Z,57.40
2017-12-21T10:40:28.277Z,58.60
2017-12-21T10:41:28.270Z,56.80
2017-12-21T10:42:28.257Z,72.70
2017-12-21T10:43:28.249Z,61.00
2017-12-21T10:44:28.241Z,48.90
2017-12-21T10:45:28.244Z,49.30
2017-12-21T10:46:28.225Z,60.20
2017-12-21T10:47:28.218Z,63.90
2017-12-21T10:48:28.209Z,61.60
2017-12-21T10:49:28.202Z,66.10
2017-12-21T10:50:28.199Z,49.30
2017-12-21T10:51:28.192Z,54.70
2017-12-21T10:52:28.183Z,63.40
2017-12-21T10:53:28.175Z,59.50
2017-12-21T10:54:28.168Z,70.80
2017-12-21T10:55:28.161Z,50.80
2017-12-21T10:56:28.153Z,47.60
2017-12-21T10:57:28.144Z,78.30
2017-12-21T10:58:28.134Z,52.60
2017-12-21T10:59:28.126Z,60.60
2017-12-21T11:00:28.120Z,60.40
2017-12-21T11:01:28.110Z,67.40
2017-12-21T11:02:28.102Z,64.80
2017-12-21T11:03:28.096Z,70.50
2017-12-21T11:04:28.088Z,61.70
2017-12-21T11:05:28.080Z,70.40
2017-12-21T11:06:28.077Z,76.40
2017-12-21T11:07:28.070Z,72.90
2017-12-21T11:08:28.062Z,73.10
2017-12-21T11:09:28.054Z,72.90
2017-12-21T11:10:28.046Z,67.10
2017-12-21T11:11:28.041Z,64.70
2017-12-21T11:12:28.030Z,77.30
2017-12-21T11:13:28.023Z,94.30
2017-12-21T11:14:28.012Z,73.60
2017-12-21T11:15:28.005Z,77.00
2017-12-21T11:16:27.998Z,75.30
2017-12-21T11:17:27.990Z,74.70
2017-12-21T11:18:27.982Z,70.00
2017-12-21T11:19:27.977Z,69.60
2017-12-21T11:20:27.966Z,65.20
2017-12-21T11:21:27.960Z,82.30
2017-12-21T11:22:27.956Z,71.30
2017-12-21T11:23:27.949Z,64.50
2017-12-21T11:24:27.941Z,69.80
2017-12-21T11:25:27.932Z,83.60
2017-12-21T11:26:27.921Z,72.40
2017-12-21T11:27:27.913Z,68.90
2017-12-21T11:28:27.906Z,78.70
2017-12-21T11:29:27.899Z,67.60
2017-12-21T11:30:27.896Z,68.90
2017-12-21T11:31:27.891Z,73.80
2017-12-21T11:32:27.887Z,79.30
2017-12-21T11:33:27.874Z,73.50
2017-12-21T11:34:27.867Z,58.20
2017-12-21T11:35:27.858Z,66.20
2017-12-21T11:36:27.850Z,64.20
2017-12-21T11:37:27.843Z,69.60
2017-12-21T11:38:27.832Z,60.20
2017-12-21T11:39:27.825Z,60.30
2017-12-21T11:40:27.815Z,64.80
2017-12-21T11:41:27.811Z,78.90
2017-12-21T11:42:27.801Z,68.30
2017-12-21T11:43:27.793Z,69.00
2017-12-21T11:44:27.789Z,63.30
2017-12-21T11:45:27.777Z,57.90
2017-12-21T11:46:27.775Z,59.10
2017-12-21T11:47:27.769Z,67.30
2017-12-21T11:48:27.760Z,57.40
2017-12-21T11:49:27.751Z,61.40
2017-12-21T11:50:27.745Z,53.40
2017-12-21T11:51:27.744Z,55.30
2017-12-21T11:52:27.732Z,63.20
2017-12-21T11:53:27.722Z,61.60
2017-12-21T11:54:27.711Z,53.70
2017-12-21T11:55:27.703Z,65.00
2017-12-21T11:56:27.695Z,68.30
2017-12-21T11:57:27.687Z,58.90
2017-12-21T11:58:27.680Z,63.60
2017-12-21T11:59:27.672Z,58.90
2017-12-21T12:00:27.665Z,50.20
2017-12-21T12:01:27.658Z,54.00
2017-12-21T12:02:27.653Z,50.20
2017-12-21T12:03:27.647Z,49.00
2017-12-21T12:05:27.631Z,55.10
2017-12-21T12:06:27.624Z,54.10
2017-12-21T12:07:27.616Z,57.50
2017-12-21T12:08:27.608Z,71.10
2017-12-21T12:09:27.604Z,63.40
2017-12-21T12:10:27.595Z,60.50
2017-12-21T12:11:27.582Z,56.60
2017-12-21T12:12:27.573Z,53.20
2017-12-21T12:13:27.567Z,56.00
2017-12-21T12:14:27.560Z,67.20
2017-12-21T12:15:27.553Z,53.80
2017-12-21T12:16:27.544Z,62.40
2017-12-21T12:17:27.537Z,65.70
2017-12-21T12:18:27.530Z,65.60
2017-12-21T12:19:27.527Z,68.00
2017-12-21T12:20:27.519Z,73.90
2017-12-21T12:21:27.512Z,58.10
2017-12-21T12:22:27.505Z,68.60
2017-12-21T12:23:27.496Z,75.40
2017-12-21T12:24:27.488Z,69.70
2017-12-21T12:25:27.483Z,60.40
2017-12-21T12:26:27.475Z,92.30
2017-12-21T12:27:27.464Z,61.30
2017-12-21T12:28:27.457Z,59.80
2017-12-21T12:29:27.448Z,72.30
2017-12-21T12:30:27.440Z,86.80
2017-12-21T12:31:27.438Z,64.50
2017-12-21T12:32:27.431Z,70.10
2017-12-21T12:33:27.423Z,83.70
2017-12-21T12:34:27.416Z,62.00
2017-12-21T12:35:27.410Z,84.30
2017-12-21T12:36:27.396Z,79.00
2017-12-21T12:37:27.389Z,94.90
2017-12-21T12:38:27.382Z,75.30
2017-12-21T12:39:27.374Z,83.30
2017-12-21T12:40:27.367Z,73.60
2017-12-21T12:41:27.360Z,85.60
2017-12-21T12:42:27.351Z,92.90
2017-12-21T12:43:27.349Z,87.10
2017-12-21T12:44:27.398Z,85.90